sensor_id;sensor_type;location;lat;lon;timestamp;P1;durP1;ratioP1;P2;durP2;ratioP2
9657;SDS011;4867;48.112;11.622;2023-04-29T00:01:30;2.07;;;1.30;;
9657;SDS011;4867;48.112;11.622;2023-04-29T00:03:57;1.30;;;1.20;;
9657;SDS011;4867;48.112;11.622;2023-04-29T00:06:25;1.30;;;1.20;;
9657;SDS011;4867;48.112;11.622;2023-04-29T00:08:54;4.50;;;1.40;;
9657;SDS011;4867;48.112;11.622;2023-04-29T00:11:21;1.40;;;1.30;;
9657;SDS011;4867;48.112;11.622;2023-04-29T00:13:48;1.43;;;1.30;;
9657;SDS011;4867;48.112;11.622;2023-04-29T00:16:15;2.50;;;1.43;;
9657;SDS011;4867;48.112;11.622;2023-04-29T00:18:43;4.73;;;3.23;;
9657;SDS011;4867;48.112;11.622;2023-04-29T00:21:10;1.50;;;1.40;;
9657;SDS011;4867;48.112;11.622;2023-04-29T00:23:38;2.53;;;1.40;;
9657;SDS011;4867;48.112;11.622;2023-04-29T00:26:05;1.87;;;1.30;;
9657;SDS011;4867;48.112;11.622;2023-04-29T00:28:33;1.40;;;1.20;;
9657;SDS011;4867;48.112;11.622;2023-04-29T00:31:00;1.40;;;1.30;;
9657;SDS011;4867;48.112;11.622;2023-04-29T00:33:27;1.70;;;1.33;;
9657;SDS011;4867;48.112;11.622;2023-04-29T00:35:55;1.50;;;1.20;;
9657;SDS011;4867;48.112;11.622;2023-04-29T00:38:23;1.30;;;1.20;;
9657;SDS011;4867;48.112;11.622;2023-04-29T00:40:51;1.43;;;1.30;;
9657;SDS011;4867;48.112;11.622;2023-04-29T00:43:18;1.40;;;1.30;;
9657;SDS011;4867;48.112;11.622;2023-04-29T00:45:46;2.50;;;1.30;;
9657;SDS011;4867;48.112;11.622;2023-04-29T00:48:13;1.93;;;1.23;;
9657;SDS011;4867;48.112;11.622;2023-04-29T00:50:41;1.70;;;1.30;;
9657;SDS011;4867;48.112;11.622;2023-04-29T00:53:10;2.90;;;1.27;;
9657;SDS011;4867;48.112;11.622;2023-04-29T00:55:39;1.40;;;1.30;;
9657;SDS011;4867;48.112;11.622;2023-04-29T00:58:07;1.20;;;1.10;;
9657;SDS011;4867;48.112;11.622;2023-04-29T01:00:36;1.97;;;1.40;;
9657;SDS011;4867;48.112;11.622;2023-04-29T01:03:04;2.00;;;1.33;;
9657;SDS011;4867;48.112;11.622;2023-04-29T01:05:32;1.30;;;1.20;;
9657;SDS011;4867;48.112;11.622;2023-04-29T01:11:05;1.30;;;1.20;;
9657;SDS011;4867;48.112;11.622;2023-04-29T01:16:14;1.40;;;1.30;;
9657;SDS011;4867;48.112;11.622;2023-04-29T01:18:49;1.63;;;1.00;;
9657;SDS011;4867;48.112;11.622;2023-04-29T01:21:25;2.43;;;1.30;;
9657;SDS011;4867;48.112;11.622;2023-04-29T01:23:52;1.30;;;1.20;;
9657;SDS011;4867;48.112;11.622;2023-04-29T01:26:24;1.23;;;1.10;;
9657;SDS011;4867;48.112;11.622;2023-04-29T01:29:36;1.20;;;1.10;;
9657;SDS011;4867;48.112;11.622;2023-04-29T01:32:08;1.10;;;1.10;;
9657;SDS011;4867;48.112;11.622;2023-04-29T01:34:53;1.57;;;1.40;;
9657;SDS011;4867;48.112;11.622;2023-04-29T01:40:18;2.17;;;1.30;;
9657;SDS011;4867;48.112;11.622;2023-04-29T01:43:14;3.00;;;1.20;;
9657;SDS011;4867;48.112;11.622;2023-04-29T01:45:46;1.40;;;1.30;;
9657;SDS011;4867;48.112;11.622;2023-04-29T01:48:15;1.40;;;1.30;;
9657;SDS011;4867;48.112;11.622;2023-04-29T01:50:43;1.50;;;1.40;;
9657;SDS011;4867;48.112;11.622;2023-04-29T01:53:12;1.50;;;1.40;;
9657;SDS011;4867;48.112;11.622;2023-04-29T01:55:40;2.80;;;1.60;;
9657;SDS011;4867;48.112;11.622;2023-04-29T01:58:19;1.87;;;1.53;;
9657;SDS011;4867;48.112;11.622;2023-04-29T02:01:12;2.00;;;1.40;;
9657;SDS011;4867;48.112;11.622;2023-04-29T02:03:40;2.07;;;1.37;;
9657;SDS011;4867;48.112;11.622;2023-04-29T02:06:11;1.63;;;1.53;;
9657;SDS011;4867;48.112;11.622;2023-04-29T02:08:38;1.77;;;1.50;;
9657;SDS011;4867;48.112;11.622;2023-04-29T02:11:06;3.60;;;1.50;;
9657;SDS011;4867;48.112;11.622;2023-04-29T02:13:36;1.20;;;1.20;;
9657;SDS011;4867;48.112;11.622;2023-04-29T02:16:10;1.50;;;1.40;;
9657;SDS011;4867;48.112;11.622;2023-04-29T02:18:52;1.63;;;1.43;;
9657;SDS011;4867;48.112;11.622;2023-04-29T02:21:20;1.70;;;1.60;;
9657;SDS011;4867;48.112;11.622;2023-04-29T02:23:48;1.70;;;1.50;;
9657;SDS011;4867;48.112;11.622;2023-04-29T02:26:16;1.50;;;1.40;;
9657;SDS011;4867;48.112;11.622;2023-04-29T02:28:43;1.60;;;1.50;;
9657;SDS011;4867;48.112;11.622;2023-04-29T02:31:10;1.60;;;1.50;;
9657;SDS011;4867;48.112;11.622;2023-04-29T02:33:38;2.80;;;1.60;;
9657;SDS011;4867;48.112;11.622;2023-04-29T02:36:08;1.60;;;1.50;;
9657;SDS011;4867;48.112;11.622;2023-04-29T02:38:35;2.93;;;1.80;;
9657;SDS011;4867;48.112;11.622;2023-04-29T02:41:03;1.53;;;1.43;;
9657;SDS011;4867;48.112;11.622;2023-04-29T02:43:30;2.70;;;1.90;;
9657;SDS011;4867;48.112;11.622;2023-04-29T02:45:58;2.77;;;1.70;;
9657;SDS011;4867;48.112;11.622;2023-04-29T02:48:26;2.90;;;1.83;;
9657;SDS011;4867;48.112;11.622;2023-04-29T02:50:54;2.33;;;1.90;;
9657;SDS011;4867;48.112;11.622;2023-04-29T02:53:21;1.97;;;1.77;;
9657;SDS011;4867;48.112;11.622;2023-04-29T02:55:49;1.77;;;1.67;;
9657;SDS011;4867;48.112;11.622;2023-04-29T02:58:16;1.97;;;1.70;;
9657;SDS011;4867;48.112;11.622;2023-04-29T03:00:43;3.03;;;1.67;;
9657;SDS011;4867;48.112;11.622;2023-04-29T03:03:10;2.50;;;1.50;;
9657;SDS011;4867;48.112;11.622;2023-04-29T03:05:38;1.60;;;1.50;;
9657;SDS011;4867;48.112;11.622;2023-04-29T03:08:05;1.73;;;1.60;;
9657;SDS011;4867;48.112;11.622;2023-04-29T03:10:33;1.97;;;1.77;;
9657;SDS011;4867;48.112;11.622;2023-04-29T03:13:01;3.10;;;1.90;;
9657;SDS011;4867;48.112;11.622;2023-04-29T03:15:30;2.83;;;1.77;;
9657;SDS011;4867;48.112;11.622;2023-04-29T03:17:57;2.47;;;1.80;;
9657;SDS011;4867;48.112;11.622;2023-04-29T03:20:27;1.80;;;1.70;;
9657;SDS011;4867;48.112;11.622;2023-04-29T03:22:55;4.37;;;1.60;;
9657;SDS011;4867;48.112;11.622;2023-04-29T03:25:23;2.20;;;2.00;;
9657;SDS011;4867;48.112;11.622;2023-04-29T03:27:50;2.10;;;1.87;;
9657;SDS011;4867;48.112;11.622;2023-04-29T03:30:18;2.57;;;1.70;;
9657;SDS011;4867;48.112;11.622;2023-04-29T03:32:49;2.27;;;2.00;;
9657;SDS011;4867;48.112;11.622;2023-04-29T03:35:17;2.13;;;1.70;;
9657;SDS011;4867;48.112;11.622;2023-04-29T03:38:13;1.70;;;1.60;;
9657;SDS011;4867;48.112;11.622;2023-04-29T03:40:41;2.60;;;1.73;;
9657;SDS011;4867;48.112;11.622;2023-04-29T03:43:09;3.07;;;2.00;;
9657;SDS011;4867;48.112;11.622;2023-04-29T03:45:37;1.97;;;1.87;;
9657;SDS011;4867;48.112;11.622;2023-04-29T03:48:05;2.63;;;2.07;;
9657;SDS011;4867;48.112;11.622;2023-04-29T03:50:34;3.27;;;1.80;;
9657;SDS011;4867;48.112;11.622;2023-04-29T03:53:02;2.83;;;2.37;;
9657;SDS011;4867;48.112;11.622;2023-04-29T03:55:29;2.00;;;1.80;;
9657;SDS011;4867;48.112;11.622;2023-04-29T03:57:57;2.27;;;1.87;;
9657;SDS011;4867;48.112;11.622;2023-04-29T04:00:24;2.80;;;1.90;;
9657;SDS011;4867;48.112;11.622;2023-04-29T04:02:58;2.10;;;1.90;;
9657;SDS011;4867;48.112;11.622;2023-04-29T04:05:28;3.47;;;2.10;;
9657;SDS011;4867;48.112;11.622;2023-04-29T04:08:02;2.90;;;2.20;;
9657;SDS011;4867;48.112;11.622;2023-04-29T04:10:29;2.80;;;2.10;;
9657;SDS011;4867;48.112;11.622;2023-04-29T04:12:58;3.53;;;1.97;;
9657;SDS011;4867;48.112;11.622;2023-04-29T04:15:26;2.00;;;1.80;;
9657;SDS011;4867;48.112;11.622;2023-04-29T04:17:53;2.20;;;2.00;;
9657;SDS011;4867;48.112;11.622;2023-04-29T04:20:21;3.40;;;2.07;;
9657;SDS011;4867;48.112;11.622;2023-04-29T04:22:48;3.40;;;2.43;;
9657;SDS011;4867;48.112;11.622;2023-04-29T04:25:21;3.37;;;2.03;;
9657;SDS011;4867;48.112;11.622;2023-04-29T04:27:49;2.13;;;2.00;;
9657;SDS011;4867;48.112;11.622;2023-04-29T04:30:29;2.37;;;2.10;;
9657;SDS011;4867;48.112;11.622;2023-04-29T04:32:56;2.50;;;2.30;;
9657;SDS011;4867;48.112;11.622;2023-04-29T04:35:24;2.00;;;1.90;;
9657;SDS011;4867;48.112;11.622;2023-04-29T04:37:51;3.20;;;1.90;;
9657;SDS011;4867;48.112;11.622;2023-04-29T04:40:19;2.17;;;1.97;;
9657;SDS011;4867;48.112;11.622;2023-04-29T04:43:07;2.47;;;2.17;;
9657;SDS011;4867;48.112;11.622;2023-04-29T04:45:38;3.37;;;2.10;;
9657;SDS011;4867;48.112;11.622;2023-04-29T04:48:05;3.33;;;2.40;;
9657;SDS011;4867;48.112;11.622;2023-04-29T04:50:36;2.40;;;2.10;;
9657;SDS011;4867;48.112;11.622;2023-04-29T04:53:04;2.53;;;2.23;;
9657;SDS011;4867;48.112;11.622;2023-04-29T04:55:46;3.53;;;2.40;;
9657;SDS011;4867;48.112;11.622;2023-04-29T04:58:15;3.33;;;2.37;;
9657;SDS011;4867;48.112;11.622;2023-04-29T05:00:44;3.43;;;2.60;;
9657;SDS011;4867;48.112;11.622;2023-04-29T05:03:11;2.73;;;2.53;;
9657;SDS011;4867;48.112;11.622;2023-04-29T05:05:39;2.87;;;2.23;;
9657;SDS011;4867;48.112;11.622;2023-04-29T05:08:07;5.23;;;2.27;;
9657;SDS011;4867;48.112;11.622;2023-04-29T05:10:39;2.60;;;2.40;;
9657;SDS011;4867;48.112;11.622;2023-04-29T05:13:07;2.77;;;2.00;;
9657;SDS011;4867;48.112;11.622;2023-04-29T05:15:35;3.07;;;2.70;;
9657;SDS011;4867;48.112;11.622;2023-04-29T05:18:04;2.50;;;2.30;;
9657;SDS011;4867;48.112;11.622;2023-04-29T05:20:32;3.70;;;2.10;;
9657;SDS011;4867;48.112;11.622;2023-04-29T05:23:00;3.40;;;2.37;;
9657;SDS011;4867;48.112;11.622;2023-04-29T05:25:32;3.13;;;2.13;;
9657;SDS011;4867;48.112;11.622;2023-04-29T05:28:00;2.40;;;2.20;;
9657;SDS011;4867;48.112;11.622;2023-04-29T05:30:30;2.40;;;2.20;;
9657;SDS011;4867;48.112;11.622;2023-04-29T05:32:59;2.83;;;2.60;;
9657;SDS011;4867;48.112;11.622;2023-04-29T05:35:27;2.60;;;2.40;;
9657;SDS011;4867;48.112;11.622;2023-04-29T05:37:55;3.20;;;2.47;;
9657;SDS011;4867;48.112;11.622;2023-04-29T05:40:35;3.47;;;2.40;;
9657;SDS011;4867;48.112;11.622;2023-04-29T05:43:32;2.67;;;2.43;;
9657;SDS011;4867;48.112;11.622;2023-04-29T05:46:00;2.60;;;2.40;;
9657;SDS011;4867;48.112;11.622;2023-04-29T05:48:27;2.23;;;2.13;;
9657;SDS011;4867;48.112;11.622;2023-04-29T05:50:56;2.47;;;2.27;;
9657;SDS011;4867;48.112;11.622;2023-04-29T05:53:23;2.50;;;2.30;;
9657;SDS011;4867;48.112;11.622;2023-04-29T05:55:51;2.60;;;2.40;;
9657;SDS011;4867;48.112;11.622;2023-04-29T05:58:20;3.30;;;2.80;;
9657;SDS011;4867;48.112;11.622;2023-04-29T06:00:48;2.20;;;2.07;;
9657;SDS011;4867;48.112;11.622;2023-04-29T06:03:22;2.43;;;2.23;;
9657;SDS011;4867;48.112;11.622;2023-04-29T06:05:57;3.73;;;2.37;;
9657;SDS011;4867;48.112;11.622;2023-04-29T06:08:51;2.50;;;2.30;;
9657;SDS011;4867;48.112;11.622;2023-04-29T06:11:24;2.37;;;2.17;;
9657;SDS011;4867;48.112;11.622;2023-04-29T06:13:51;3.10;;;2.63;;
9657;SDS011;4867;48.112;11.622;2023-04-29T06:16:18;4.30;;;2.30;;
9657;SDS011;4867;48.112;11.622;2023-04-29T06:18:46;3.13;;;2.43;;
9657;SDS011;4867;48.112;11.622;2023-04-29T06:21:13;2.87;;;2.60;;
9657;SDS011;4867;48.112;11.622;2023-04-29T06:23:42;2.90;;;2.60;;
9657;SDS011;4867;48.112;11.622;2023-04-29T06:26:15;3.13;;;2.83;;
9657;SDS011;4867;48.112;11.622;2023-04-29T06:28:42;2.90;;;2.60;;
9657;SDS011;4867;48.112;11.622;2023-04-29T06:31:10;3.03;;;2.83;;
9657;SDS011;4867;48.112;11.622;2023-04-29T06:33:38;3.67;;;2.90;;
9657;SDS011;4867;48.112;11.622;2023-04-29T06:36:05;4.13;;;2.93;;
9657;SDS011;4867;48.112;11.622;2023-04-29T06:38:56;3.50;;;3.20;;
9657;SDS011;4867;48.112;11.622;2023-04-29T06:41:41;4.30;;;3.23;;
9657;SDS011;4867;48.112;11.622;2023-04-29T06:44:27;3.90;;;3.60;;
9657;SDS011;4867;48.112;11.622;2023-04-29T06:47:02;5.53;;;3.70;;
9657;SDS011;4867;48.112;11.622;2023-04-29T06:49:42;3.93;;;3.37;;
9657;SDS011;4867;48.112;11.622;2023-04-29T06:52:09;3.73;;;3.20;;
9657;SDS011;4867;48.112;11.622;2023-04-29T06:54:37;3.93;;;3.63;;
9657;SDS011;4867;48.112;11.622;2023-04-29T06:57:04;4.40;;;4.00;;
9657;SDS011;4867;48.112;11.622;2023-04-29T06:59:32;4.17;;;3.83;;
9657;SDS011;4867;48.112;11.622;2023-04-29T07:02:02;4.10;;;3.80;;
9657;SDS011;4867;48.112;11.622;2023-04-29T07:04:30;6.50;;;4.53;;
9657;SDS011;4867;48.112;11.622;2023-04-29T07:06:57;4.03;;;3.73;;
9657;SDS011;4867;48.112;11.622;2023-04-29T07:09:25;4.77;;;4.30;;
9657;SDS011;4867;48.112;11.622;2023-04-29T07:11:53;4.30;;;4.00;;
9657;SDS011;4867;48.112;11.622;2023-04-29T07:14:20;4.20;;;3.80;;
9657;SDS011;4867;48.112;11.622;2023-04-29T07:16:52;4.53;;;4.10;;
9657;SDS011;4867;48.112;11.622;2023-04-29T07:19:20;4.47;;;4.07;;
9657;SDS011;4867;48.112;11.622;2023-04-29T07:21:48;4.37;;;3.83;;
9657;SDS011;4867;48.112;11.622;2023-04-29T07:24:15;4.77;;;4.37;;
9657;SDS011;4867;48.112;11.622;2023-04-29T07:26:44;5.23;;;4.20;;
9657;SDS011;4867;48.112;11.622;2023-04-29T07:29:14;4.37;;;4.07;;
9657;SDS011;4867;48.112;11.622;2023-04-29T07:31:41;5.33;;;4.77;;
9657;SDS011;4867;48.112;11.622;2023-04-29T07:34:09;6.73;;;4.37;;
9657;SDS011;4867;48.112;11.622;2023-04-29T07:36:37;5.53;;;4.30;;
9657;SDS011;4867;48.112;11.622;2023-04-29T07:39:05;4.57;;;4.20;;
9657;SDS011;4867;48.112;11.622;2023-04-29T07:41:32;4.50;;;4.10;;
9657;SDS011;4867;48.112;11.622;2023-04-29T07:43:59;4.80;;;4.40;;
9657;SDS011;4867;48.112;11.622;2023-04-29T07:46:27;4.60;;;4.17;;
9657;SDS011;4867;48.112;11.622;2023-04-29T07:48:55;4.40;;;4.00;;
9657;SDS011;4867;48.112;11.622;2023-04-29T07:51:22;5.27;;;4.73;;
9657;SDS011;4867;48.112;11.622;2023-04-29T07:53:50;4.77;;;4.10;;
9657;SDS011;4867;48.112;11.622;2023-04-29T07:56:17;4.50;;;4.10;;
9657;SDS011;4867;48.112;11.622;2023-04-29T07:58:45;4.47;;;4.07;;
9657;SDS011;4867;48.112;11.622;2023-04-29T08:01:13;4.13;;;3.83;;
9657;SDS011;4867;48.112;11.622;2023-04-29T08:03:41;4.40;;;4.00;;
9657;SDS011;4867;48.112;11.622;2023-04-29T08:06:10;4.70;;;3.93;;
9657;SDS011;4867;48.112;11.622;2023-04-29T08:08:40;3.97;;;3.57;;
9657;SDS011;4867;48.112;11.622;2023-04-29T08:11:14;4.33;;;3.77;;
9657;SDS011;4867;48.112;11.622;2023-04-29T08:13:44;4.20;;;3.50;;
9657;SDS011;4867;48.112;11.622;2023-04-29T08:16:12;4.43;;;3.60;;
9657;SDS011;4867;48.112;11.622;2023-04-29T08:18:40;3.40;;;3.20;;
9657;SDS011;4867;48.112;11.622;2023-04-29T08:21:08;3.67;;;3.33;;
9657;SDS011;4867;48.112;11.622;2023-04-29T08:23:37;3.97;;;3.40;;
9657;SDS011;4867;48.112;11.622;2023-04-29T08:26:05;3.90;;;3.47;;
9657;SDS011;4867;48.112;11.622;2023-04-29T08:28:33;3.73;;;3.43;;
9657;SDS011;4867;48.112;11.622;2023-04-29T08:31:00;3.70;;;3.37;;
9657;SDS011;4867;48.112;11.622;2023-04-29T08:33:27;3.60;;;3.30;;
9657;SDS011;4867;48.112;11.622;2023-04-29T08:35:58;4.20;;;3.23;;
9657;SDS011;4867;48.112;11.622;2023-04-29T08:38:26;3.87;;;3.50;;
9657;SDS011;4867;48.112;11.622;2023-04-29T08:40:53;3.67;;;3.37;;
9657;SDS011;4867;48.112;11.622;2023-04-29T08:43:22;3.47;;;3.13;;
9657;SDS011;4867;48.112;11.622;2023-04-29T08:45:49;3.60;;;3.30;;
9657;SDS011;4867;48.112;11.622;2023-04-29T08:48:17;3.87;;;3.20;;
9657;SDS011;4867;48.112;11.622;2023-04-29T08:50:44;3.03;;;2.83;;
9657;SDS011;4867;48.112;11.622;2023-04-29T08:53:12;3.07;;;2.60;;
9657;SDS011;4867;48.112;11.622;2023-04-29T08:55:41;3.57;;;2.70;;
9657;SDS011;4867;48.112;11.622;2023-04-29T08:58:10;2.70;;;2.50;;
9657;SDS011;4867;48.112;11.622;2023-04-29T09:00:38;3.00;;;2.30;;
9657;SDS011;4867;48.112;11.622;2023-04-29T09:03:16;3.63;;;2.30;;
9657;SDS011;4867;48.112;11.622;2023-04-29T09:05:52;3.13;;;2.83;;
9657;SDS011;4867;48.112;11.622;2023-04-29T09:08:21;3.00;;;2.70;;
9657;SDS011;4867;48.112;11.622;2023-04-29T09:10:52;3.43;;;2.97;;
9657;SDS011;4867;48.112;11.622;2023-04-29T09:13:24;3.20;;;2.60;;
9657;SDS011;4867;48.112;11.622;2023-04-29T09:15:55;3.37;;;2.33;;
9657;SDS011;4867;48.112;11.622;2023-04-29T09:21:19;2.37;;;2.17;;
9657;SDS011;4867;48.112;11.622;2023-04-29T09:23:54;2.33;;;2.03;;
9657;SDS011;4867;48.112;11.622;2023-04-29T09:26:23;3.53;;;2.40;;
9657;SDS011;4867;48.112;11.622;2023-04-29T09:29:10;2.40;;;2.20;;
9657;SDS011;4867;48.112;11.622;2023-04-29T09:31:44;2.80;;;2.10;;
9657;SDS011;4867;48.112;11.622;2023-04-29T09:34:12;3.33;;;2.13;;
9657;SDS011;4867;48.112;11.622;2023-04-29T09:36:46;1.97;;;1.83;;
9657;SDS011;4867;48.112;11.622;2023-04-29T09:39:16;3.17;;;2.07;;
9657;SDS011;4867;48.112;11.622;2023-04-29T09:44:28;2.33;;;2.10;;
9657;SDS011;4867;48.112;11.622;2023-04-29T09:49:30;4.77;;;2.10;;
9657;SDS011;4867;48.112;11.622;2023-04-29T09:52:01;2.93;;;2.00;;
9657;SDS011;4867;48.112;11.622;2023-04-29T09:54:30;2.00;;;1.80;;
9657;SDS011;4867;48.112;11.622;2023-04-29T09:56:59;2.30;;;1.90;;
9657;SDS011;4867;48.112;11.622;2023-04-29T09:59:28;2.00;;;1.83;;
9657;SDS011;4867;48.112;11.622;2023-04-29T10:01:56;2.13;;;1.70;;
9657;SDS011;4867;48.112;11.622;2023-04-29T10:04:25;2.03;;;1.83;;
9657;SDS011;4867;48.112;11.622;2023-04-29T10:06:54;1.97;;;1.80;;
9657;SDS011;4867;48.112;11.622;2023-04-29T10:09:22;2.30;;;2.10;;
9657;SDS011;4867;48.112;11.622;2023-04-29T10:11:50;2.43;;;1.80;;
9657;SDS011;4867;48.112;11.622;2023-04-29T10:14:20;2.00;;;1.80;;
9657;SDS011;4867;48.112;11.622;2023-04-29T10:16:49;4.23;;;1.70;;
9657;SDS011;4867;48.112;11.622;2023-04-29T10:19:25;2.77;;;2.10;;
9657;SDS011;4867;48.112;11.622;2023-04-29T10:22:16;2.00;;;1.77;;
9657;SDS011;4867;48.112;11.622;2023-04-29T10:25:00;2.17;;;1.80;;
9657;SDS011;4867;48.112;11.622;2023-04-29T10:27:28;2.50;;;1.80;;
9657;SDS011;4867;48.112;11.622;2023-04-29T10:29:59;3.03;;;2.63;;
9657;SDS011;4867;48.112;11.622;2023-04-29T10:32:28;3.10;;;2.80;;
9657;SDS011;4867;48.112;11.622;2023-04-29T10:35:16;3.97;;;2.70;;
9657;SDS011;4867;48.112;11.622;2023-04-29T10:37:49;3.47;;;2.70;;
9657;SDS011;4867;48.112;11.622;2023-04-29T10:40:18;3.60;;;2.97;;
9657;SDS011;4867;48.112;11.622;2023-04-29T10:42:51;3.50;;;3.07;;
9657;SDS011;4867;48.112;11.622;2023-04-29T10:53:15;3.60;;;3.30;;
9657;SDS011;4867;48.112;11.622;2023-04-29T10:55:52;3.03;;;2.83;;
9657;SDS011;4867;48.112;11.622;2023-04-29T10:58:36;3.50;;;2.63;;
9657;SDS011;4867;48.112;11.622;2023-04-29T11:01:03;2.90;;;2.60;;
9657;SDS011;4867;48.112;11.622;2023-04-29T11:06:11;4.30;;;2.27;;
9657;SDS011;4867;48.112;11.622;2023-04-29T11:08:39;3.43;;;2.17;;
9657;SDS011;4867;48.112;11.622;2023-04-29T11:11:07;4.80;;;2.80;;
9657;SDS011;4867;48.112;11.622;2023-04-29T11:13:38;4.67;;;2.53;;
9657;SDS011;4867;48.112;11.622;2023-04-29T11:16:07;2.87;;;2.67;;
9657;SDS011;4867;48.112;11.622;2023-04-29T11:18:36;2.73;;;2.53;;
9657;SDS011;4867;48.112;11.622;2023-04-29T11:21:36;2.60;;;2.40;;
9657;SDS011;4867;48.112;11.622;2023-04-29T11:24:03;2.37;;;2.17;;
9657;SDS011;4867;48.112;11.622;2023-04-29T11:26:35;3.57;;;2.40;;
9657;SDS011;4867;48.112;11.622;2023-04-29T11:29:03;2.83;;;2.30;;
9657;SDS011;4867;48.112;11.622;2023-04-29T11:31:31;2.50;;;2.30;;
9657;SDS011;4867;48.112;11.622;2023-04-29T11:33:59;2.00;;;1.90;;
9657;SDS011;4867;48.112;11.622;2023-04-29T11:36:26;2.40;;;2.20;;
9657;SDS011;4867;48.112;11.622;2023-04-29T11:38:54;4.73;;;2.03;;
9657;SDS011;4867;48.112;11.622;2023-04-29T11:41:21;2.30;;;2.03;;
9657;SDS011;4867;48.112;11.622;2023-04-29T11:43:55;2.43;;;2.23;;
9657;SDS011;4867;48.112;11.622;2023-04-29T11:46:24;2.73;;;2.43;;
9657;SDS011;4867;48.112;11.622;2023-04-29T11:48:56;3.77;;;2.00;;
9657;SDS011;4867;48.112;11.622;2023-04-29T11:51:24;2.00;;;1.80;;
9657;SDS011;4867;48.112;11.622;2023-04-29T11:53:52;2.10;;;1.93;;
9657;SDS011;4867;48.112;11.622;2023-04-29T11:56:20;4.37;;;1.97;;
9657;SDS011;4867;48.112;11.622;2023-04-29T11:58:54;2.70;;;2.00;;
9657;SDS011;4867;48.112;11.622;2023-04-29T12:01:24;1.80;;;1.70;;
9657;SDS011;4867;48.112;11.622;2023-04-29T12:03:56;3.63;;;1.53;;
9657;SDS011;4867;48.112;11.622;2023-04-29T12:06:28;2.43;;;1.67;;
9657;SDS011;4867;48.112;11.622;2023-04-29T12:08:59;1.80;;;1.70;;
9657;SDS011;4867;48.112;11.622;2023-04-29T12:11:27;2.20;;;1.90;;
9657;SDS011;4867;48.112;11.622;2023-04-29T12:13:55;2.00;;;1.80;;
9657;SDS011;4867;48.112;11.622;2023-04-29T12:16:23;1.70;;;1.60;;
9657;SDS011;4867;48.112;11.622;2023-04-29T12:18:51;1.70;;;1.60;;
9657;SDS011;4867;48.112;11.622;2023-04-29T12:21:20;2.00;;;1.80;;
9657;SDS011;4867;48.112;11.622;2023-04-29T12:23:48;2.50;;;1.77;;
9657;SDS011;4867;48.112;11.622;2023-04-29T12:26:17;2.43;;;1.70;;
9657;SDS011;4867;48.112;11.622;2023-04-29T12:28:47;2.13;;;1.93;;
9657;SDS011;4867;48.112;11.622;2023-04-29T12:31:19;2.80;;;1.70;;
9657;SDS011;4867;48.112;11.622;2023-04-29T12:33:47;2.20;;;1.70;;
9657;SDS011;4867;48.112;11.622;2023-04-29T12:36:17;1.90;;;1.80;;
9657;SDS011;4867;48.112;11.622;2023-04-29T12:38:46;2.87;;;1.97;;
9657;SDS011;4867;48.112;11.622;2023-04-29T12:41:14;2.10;;;2.00;;
9657;SDS011;4867;48.112;11.622;2023-04-29T12:43:42;2.37;;;2.10;;
9657;SDS011;4867;48.112;11.622;2023-04-29T12:46:10;2.10;;;1.90;;
9657;SDS011;4867;48.112;11.622;2023-04-29T12:48:40;3.00;;;1.80;;
9657;SDS011;4867;48.112;11.622;2023-04-29T12:51:09;2.13;;;1.93;;
9657;SDS011;4867;48.112;11.622;2023-04-29T12:53:37;2.10;;;1.90;;
9657;SDS011;4867;48.112;11.622;2023-04-29T12:56:05;1.90;;;1.80;;
9657;SDS011;4867;48.112;11.622;2023-04-29T12:58:32;2.23;;;1.90;;
9657;SDS011;4867;48.112;11.622;2023-04-29T13:01:00;2.10;;;1.80;;
9657;SDS011;4867;48.112;11.622;2023-04-29T13:03:29;1.90;;;1.80;;
9657;SDS011;4867;48.112;11.622;2023-04-29T13:05:56;1.77;;;1.67;;
9657;SDS011;4867;48.112;11.622;2023-04-29T13:08:24;1.70;;;1.60;;
9657;SDS011;4867;48.112;11.622;2023-04-29T13:10:53;3.53;;;1.90;;
9657;SDS011;4867;48.112;11.622;2023-04-29T13:13:20;2.80;;;1.80;;
9657;SDS011;4867;48.112;11.622;2023-04-29T13:15:47;1.90;;;1.80;;
9657;SDS011;4867;48.112;11.622;2023-04-29T13:18:14;2.00;;;1.60;;
9657;SDS011;4867;48.112;11.622;2023-04-29T13:20:42;1.70;;;1.60;;
9657;SDS011;4867;48.112;11.622;2023-04-29T13:23:10;1.97;;;1.77;;
9657;SDS011;4867;48.112;11.622;2023-04-29T13:25:40;2.33;;;1.50;;
9657;SDS011;4867;48.112;11.622;2023-04-29T13:28:07;1.67;;;1.57;;
9657;SDS011;4867;48.112;11.622;2023-04-29T13:30:34;1.97;;;1.77;;
9657;SDS011;4867;48.112;11.622;2023-04-29T13:33:01;1.57;;;1.47;;
9657;SDS011;4867;48.112;11.622;2023-04-29T13:35:38;1.87;;;1.60;;
9657;SDS011;4867;48.112;11.622;2023-04-29T13:38:07;1.57;;;1.47;;
9657;SDS011;4867;48.112;11.622;2023-04-29T13:40:34;1.60;;;1.50;;
9657;SDS011;4867;48.112;11.622;2023-04-29T13:43:11;2.27;;;1.67;;
9657;SDS011;4867;48.112;11.622;2023-04-29T13:45:42;3.00;;;1.40;;
9657;SDS011;4867;48.112;11.622;2023-04-29T13:48:13;2.10;;;1.50;;
9657;SDS011;4867;48.112;11.622;2023-04-29T13:51:00;1.40;;;1.30;;
9657;SDS011;4867;48.112;11.622;2023-04-29T13:53:31;1.50;;;1.40;;
9657;SDS011;4867;48.112;11.622;2023-04-29T13:56:18;3.90;;;1.70;;
9657;SDS011;4867;48.112;11.622;2023-04-29T13:58:48;1.37;;;1.27;;
9657;SDS011;4867;48.112;11.622;2023-04-29T14:01:18;1.53;;;1.40;;
9657;SDS011;4867;48.112;11.622;2023-04-29T14:03:50;2.03;;;1.30;;
9657;SDS011;4867;48.112;11.622;2023-04-29T14:06:18;1.60;;;1.50;;
9657;SDS011;4867;48.112;11.622;2023-04-29T14:08:45;1.60;;;1.50;;
9657;SDS011;4867;48.112;11.622;2023-04-29T14:11:13;1.47;;;1.37;;
9657;SDS011;4867;48.112;11.622;2023-04-29T14:13:40;1.60;;;1.50;;
9657;SDS011;4867;48.112;11.622;2023-04-29T14:16:07;1.47;;;1.37;;
9657;SDS011;4867;48.112;11.622;2023-04-29T14:18:35;1.40;;;1.30;;
9657;SDS011;4867;48.112;11.622;2023-04-29T14:21:02;2.13;;;1.50;;
9657;SDS011;4867;48.112;11.622;2023-04-29T14:23:29;1.60;;;1.40;;
9657;SDS011;4867;48.112;11.622;2023-04-29T14:25:57;1.50;;;1.40;;
9657;SDS011;4867;48.112;11.622;2023-04-29T14:28:44;2.77;;;1.90;;
9657;SDS011;4867;48.112;11.622;2023-04-29T14:31:11;1.60;;;1.50;;
9657;SDS011;4867;48.112;11.622;2023-04-29T14:33:39;3.23;;;1.37;;
9657;SDS011;4867;48.112;11.622;2023-04-29T14:36:06;2.13;;;1.37;;
9657;SDS011;4867;48.112;11.622;2023-04-29T14:38:35;2.07;;;1.50;;
9657;SDS011;4867;48.112;11.622;2023-04-29T14:41:02;1.50;;;1.40;;
9657;SDS011;4867;48.112;11.622;2023-04-29T14:43:29;1.70;;;1.37;;
9657;SDS011;4867;48.112;11.622;2023-04-29T14:45:56;1.83;;;1.60;;
9657;SDS011;4867;48.112;11.622;2023-04-29T14:48:24;1.60;;;1.50;;
9657;SDS011;4867;48.112;11.622;2023-04-29T14:50:51;2.10;;;1.60;;
9657;SDS011;4867;48.112;11.622;2023-04-29T14:53:18;1.50;;;1.40;;
9657;SDS011;4867;48.112;11.622;2023-04-29T14:55:50;2.03;;;1.63;;
9657;SDS011;4867;48.112;11.622;2023-04-29T14:58:17;1.57;;;1.37;;
9657;SDS011;4867;48.112;11.622;2023-04-29T15:00:44;1.80;;;1.63;;
9657;SDS011;4867;48.112;11.622;2023-04-29T15:03:11;1.70;;;1.60;;
9657;SDS011;4867;48.112;11.622;2023-04-29T15:05:48;1.90;;;1.80;;
9657;SDS011;4867;48.112;11.622;2023-04-29T15:08:16;2.30;;;1.90;;
9657;SDS011;4867;48.112;11.622;2023-04-29T15:10:44;1.50;;;1.40;;
9657;SDS011;4867;48.112;11.622;2023-04-29T15:13:15;2.37;;;1.60;;
9657;SDS011;4867;48.112;11.622;2023-04-29T15:15:43;2.13;;;1.60;;
9657;SDS011;4867;48.112;11.622;2023-04-29T15:18:10;2.17;;;1.80;;
9657;SDS011;4867;48.112;11.622;2023-04-29T15:20:37;1.60;;;1.50;;
9657;SDS011;4867;48.112;11.622;2023-04-29T15:23:04;1.67;;;1.57;;
9657;SDS011;4867;48.112;11.622;2023-04-29T15:25:32;2.50;;;1.40;;
9657;SDS011;4867;48.112;11.622;2023-04-29T15:28:01;1.93;;;1.50;;
9657;SDS011;4867;48.112;11.622;2023-04-29T15:30:29;2.90;;;1.67;;
9657;SDS011;4867;48.112;11.622;2023-04-29T15:32:56;1.47;;;1.37;;
9657;SDS011;4867;48.112;11.622;2023-04-29T15:35:24;2.30;;;1.50;;
9657;SDS011;4867;48.112;11.622;2023-04-29T15:37:52;2.80;;;1.70;;
9657;SDS011;4867;48.112;11.622;2023-04-29T15:40:19;2.67;;;1.50;;
9657;SDS011;4867;48.112;11.622;2023-04-29T15:42:46;2.00;;;1.80;;
9657;SDS011;4867;48.112;11.622;2023-04-29T15:45:13;2.37;;;1.93;;